Flight Track Log - Related Links

Times and Time Zones

All times are in EDT time to prevent confusion due to time zone crossing. See the JZA8557 flight status page for this flight to view local times or setup timezone preferences in your user account.


Time Position Orientation Groundspeed Altitude Reporting Facility
EDT Latitude Longitude Course Direction KTS MPH feet Rate Location/Type
Fri 08:56:37 PM 51.0667 -114.0333 252° West 160 184 4,100  Level Edmonton Center
Fri 08:57:37 PM 51.0333 -114.0500 197° South 180 207 5,800 1,800 Climbing Edmonton Center
Fri 08:58:37 PM 50.9833 -114.0667 192° South 200 230 7,700 1,850 Climbing Edmonton Center
Fri 08:59:37 PM 50.9833 -114.1500 270° West 210 242 9,500 1,600 Climbing Edmonton Center
Fri 09:00:00 PM 51.0059 -114.5278 270° West  Level Estimated
Fri 09:00:37 PM 51.0000 -114.2667 283° West 240 276 10,900  Level Edmonton Center
Fri 09:01:00 PM 50.9786 -114.6543 257° West  Level Estimated
Fri 09:01:37 PM 51.0167 -114.3667 285° West 250 288 12,200  Level Edmonton Center
Fri 09:02:00 PM 50.9519 -114.7773 252° West  Level Estimated
Fri 09:02:37 PM 51.0000 -114.4667 255° West 250 288 13,700  Level Edmonton Center
Fri 09:03:37 PM 50.9667 -114.5833 246° West 250 288 15,300 1,500 Climbing Edmonton Center
Fri 09:04:37 PM 50.9500 -114.6833 255° West 250 288 16,700 1,500 Climbing Edmonton Center
Fri 09:05:37 PM 50.9167 -114.7833 242° Southwest 250 288 18,300 1,350 Climbing Edmonton Center
Fri 09:06:37 PM 50.9000 -114.8833 255° West 250 288 19,400 1,100 Climbing Edmonton Center
Fri 09:07:37 PM 50.8833 -114.9833 255° West 250 288 20,500 1,050 Climbing Edmonton Center
Fri 09:08:37 PM 50.8500 -115.0833 242° Southwest 250 288 21,500 850 Climbing Edmonton Center
Fri 09:09:37 PM 50.8500 -115.2167 270° West 250 288 22,200 800 Climbing Edmonton Center
Fri 09:10:37 PM 50.8167 -115.3167 242° Southwest 260 299 23,100 850 Climbing Edmonton Center
Fri 09:11:37 PM 50.8167 -115.4333 270° West 260 299 23,900 450 Climbing Edmonton Center
Fri 09:12:37 PM 50.7833 -115.5500 246° West 270 311 24,000 50 Climbing Edmonton Center
Fri 09:13:37 PM 50.7667 -115.6833 259° West 290 334 24,000  Level Edmonton Center
Fri 09:14:37 PM 50.7333 -115.8167 248° West 300 345 24,000  Level Edmonton Center
Fri 09:15:37 PM 50.7167 -115.9500 259° West 310 357 24,000  Level Edmonton Center
Fri 09:16:37 PM 50.6833 -116.1000 251° West 310 357 24,000  Level Edmonton Center
Fri 09:17:37 PM 50.6833 -116.2333 270° West 310 357 24,000  Level Edmonton Center
Fri 09:18:37 PM 50.6500 -116.3500 246° West 310 357 24,000  Level Edmonton Center
Fri 09:19:11 PM 50.6500 -116.3667 270° West 310 357 24,000  Level Vancouver Center
Fri 09:20:11 PM 50.6333 -116.5000 259° West 310 357 24,000  Level Vancouver Center
Fri 09:21:11 PM 50.6000 -116.6333 249° West 320 368 24,000  Level Vancouver Center
Fri 09:22:11 PM 50.6000 -116.7667 270° West 320 368 24,000  Level Vancouver Center
Fri 09:23:11 PM 50.5667 -116.9000 249° West 310 357 24,000  Level Vancouver Center
Fri 09:24:11 PM 50.5333 -117.0167 246° West 310 357 24,000  Level Vancouver Center
Fri 09:25:11 PM 50.5167 -117.1500 259° West 310 357 24,000  Level Vancouver Center
Fri 09:26:11 PM 50.4833 -117.2833 249° West 310 357 24,000  Level Vancouver Center
Fri 09:27:11 PM 50.4667 -117.4167 259° West 310 357 24,000  Level Vancouver Center
Fri 09:28:11 PM 50.4333 -117.5500 249° West 310 357 24,000  Level Vancouver Center
Fri 09:29:11 PM 50.4333 -117.6833 270° West 310 357 24,000  Level Vancouver Center
Fri 09:30:11 PM 50.4000 -117.8000 246° West 310 357 24,000  Level Vancouver Center
Fri 09:31:11 PM 50.3667 -117.9333 249° West 310 357 24,000  Level Vancouver Center
Fri 09:32:11 PM 50.3500 -118.0667 259° West 310 357 24,000  Level Vancouver Center
Fri 09:33:11 PM 50.3167 -118.2000 249° West 310 357 24,000  Level Vancouver Center
Fri 09:34:11 PM 50.3000 -118.3333 259° West 310 357 24,000  Level Vancouver Center
Fri 09:35:11 PM 50.2833 -118.4333 255° West 310 357 24,000  Level Vancouver Center
Fri 09:36:11 PM 50.2500 -118.5667 249° West 300 345 24,000  Level Vancouver Center
Fri 09:37:11 PM 50.2333 -118.7000 259° West 300 345 24,000  Level Vancouver Center
Fri 09:38:11 PM 50.2000 -118.8167 246° West 300 345 24,000  Level Vancouver Center
Fri 09:39:11 PM 50.1667 -118.9500 249° West 310 357 24,000  Level Vancouver Center
Fri 09:40:11 PM 50.1500 -119.0833 259° West 310 357 24,000  Level Vancouver Center
Fri 09:41:11 PM 50.1167 -119.2167 249° West 310 357 24,000  Level Vancouver Center
Fri 09:42:11 PM 50.1000 -119.3500 259° West 310 357 24,000  Level Vancouver Center
Fri 09:43:11 PM 50.0667 -119.4833 249° West 320 368 24,000  Level Vancouver Center
Fri 09:44:11 PM 50.0500 -119.5833 255° West 320 368 24,000  Level Vancouver Center
Fri 09:45:11 PM 50.0167 -119.7167 249° West 320 368 24,000  Level Vancouver Center
Fri 09:46:11 PM 49.9833 -119.8500 249° West 320 368 24,000  Level Vancouver Center
Fri 09:47:11 PM 49.9667 -119.9833 259° West 320 368 24,000  Level Vancouver Center
Fri 09:48:11 PM 49.9333 -120.1333 251° West 330 380 24,000  Level Vancouver Center
Fri 09:49:11 PM 49.9000 -120.2667 249° West 330 380 24,000  Level Vancouver Center
Fri 09:50:11 PM 49.8667 -120.4000 249° West 330 380 24,000  Level Vancouver Center
Fri 09:51:11 PM 49.8500 -120.5333 259° West 320 368 24,000  Level Vancouver Center
Fri 09:52:11 PM 49.8167 -120.6500 246° West 320 368 24,000  Level Vancouver Center
Fri 09:53:11 PM 49.7833 -120.8000 251° West 310 357 24,000  Level Vancouver Center
Fri 09:54:11 PM 49.7667 -120.9000 256° West 310 357 24,000  Level Vancouver Center
Fri 09:55:11 PM 49.7333 -121.0333 249° West 310 357 24,000  Level Vancouver Center
Fri 09:56:11 PM 49.7167 -121.1667 259° West 310 357 24,000  Level Vancouver Center
Fri 09:57:11 PM 49.6833 -121.3000 249° West 310 357 24,000  Level Vancouver Center
Fri 09:58:11 PM 49.6500 -121.4333 249° West 310 357 24,000  Level Vancouver Center
Fri 09:59:11 PM 49.6167 -121.5333 243° Southwest 310 357 24,000  Level Vancouver Center
Fri 10:00:11 PM 49.5833 -121.6667 249° West 310 357 24,000  Level Vancouver Center
Fri 10:01:11 PM 49.5500 -121.8000 249° West 310 357 24,000  Level Vancouver Center
Fri 10:02:11 PM 49.5167 -121.9167 246° West 310 357 24,000  Level Vancouver Center
Fri 10:03:11 PM 49.5167 -122.0500 270° West 310 357 24,000  Level Vancouver Center
Fri 10:04:11 PM 49.4667 -122.1500 232° Southwest 310 357 24,000  Level Vancouver Center
Fri 10:05:11 PM 49.4167 -122.2667 237° Southwest 310 357 24,000 -200 Level Vancouver Center
Fri 10:06:11 PM 49.3667 -122.3667 233° Southwest 310 357 23,600 -1,050 Descending Vancouver Center
Fri 10:07:11 PM 49.3167 -122.5000 240° Southwest 330 380 21,900 -1,650 Descending Vancouver Center
Fri 10:08:11 PM 49.2667 -122.6167 237° Southwest 340 391 20,300 -1,650 Descending Vancouver Center
Fri 10:09:11 PM 49.2167 -122.7500 240° Southwest 330 380 18,600 -1,600 Descending Vancouver Center
Fri 10:10:11 PM 49.1667 -122.8500 233° Southwest 330 380 17,100 -850 Descending Vancouver Center
Fri 10:11:11 PM 49.1333 -122.9500 243° Southwest 310 357 16,900 -1,100 Descending Vancouver Center
Fri 10:12:11 PM 49.0833 -123.0833 240° Southwest 290 334 14,900 -1,700 Descending Vancouver Center
Fri 10:13:11 PM 49.0333 -123.1667 228° Southwest 260 299 13,500 -1,050 Descending Vancouver Center
Fri 10:14:11 PM 48.9833 -123.1833 192° South 250 288 12,800 -1,150 Descending Vancouver Center
Fri 10:15:11 PM 48.9167 -123.2333 206° Southwest 240 276 11,200 -1,550 Descending Vancouver Center
Fri 10:16:11 PM 48.8500 -123.3000 213° Southwest 240 276 9,700 -1,550 Descending Vancouver Center
Fri 10:17:11 PM 48.8000 -123.3667 221° Southwest 240 276 8,100 -1,500 Descending Vancouver Center
Fri 10:18:11 PM 48.7500 -123.4167 213° Southwest 240 276 6,700 -1,500 Descending Vancouver Center
Fri 10:19:11 PM 48.7500 -123.5167 270° West 230 265 5,100 -1,450 Descending Vancouver Center
Fri 10:20:11 PM 48.7167 -123.5667 225° Southwest 200 230 3,800 -1,400 Descending Vancouver Center
Fri 10:21:11 PM 48.6833 -123.5667 180° South 180 207 2,300 -1,350 Descending Vancouver Center
Fri 10:22:11 PM 48.6500 -123.5167 135° Southeast 160 184 1,100 -950 Descending Vancouver Center
Fri 10:23:11 PM 48.6333 -123.4500 111° Southeast 140 161 400 -700 Descending Vancouver Center

Login

Don't have an account? Register now (free) for customized features, flight alerts, and more!